sensor_id;sensor_type;location;lat;lon;timestamp;pressure;altitude;pressure_sealevel;temperature;humidity
9969;BME280;5025;48.890;9.278;2023-07-31T00:00:26;98811.91;;;17.76;63.17
9969;BME280;5025;48.890;9.278;2023-07-31T00:02:52;98805.06;;;17.68;63.52
9969;BME280;5025;48.890;9.278;2023-07-31T00:05:17;98804.81;;;17.65;63.73
9969;BME280;5025;48.890;9.278;2023-07-31T00:07:42;98810.56;;;17.63;63.67
9969;BME280;5025;48.890;9.278;2023-07-31T00:10:08;98810.56;;;17.63;63.61
9969;BME280;5025;48.890;9.278;2023-07-31T00:12:33;98804.25;;;17.63;63.93
9969;BME280;5025;48.890;9.278;2023-07-31T00:14:59;98803.44;;;17.62;63.88
9969;BME280;5025;48.890;9.278;2023-07-31T00:17:24;98801.78;;;17.61;63.94
9969;BME280;5025;48.890;9.278;2023-07-31T00:19:49;98808.38;;;17.60;64.02
9969;BME280;5025;48.890;9.278;2023-07-31T00:22:16;98810.00;;;17.61;63.98
9969;BME280;5025;48.890;9.278;2023-07-31T00:24:41;98807.53;;;17.60;64.04
9969;BME280;5025;48.890;9.278;2023-07-31T00:27:06;98804.00;;;17.59;64.14
9969;BME280;5025;48.890;9.278;2023-07-31T00:29:31;98805.06;;;17.58;64.19
9969;BME280;5025;48.890;9.278;2023-07-31T00:31:57;98805.91;;;17.59;64.22
9969;BME280;5025;48.890;9.278;2023-07-31T00:34:22;98805.06;;;17.58;64.31
9969;BME280;5025;48.890;9.278;2023-07-31T00:36:47;98807.81;;;17.58;64.44
9969;BME280;5025;48.890;9.278;2023-07-31T00:39:12;98812.72;;;17.56;64.66
9969;BME280;5025;48.890;9.278;2023-07-31T00:41:37;98802.91;;;17.55;64.57
9969;BME280;5025;48.890;9.278;2023-07-31T00:44:03;98820.38;;;17.54;64.77
9969;BME280;5025;48.890;9.278;2023-07-31T00:46:28;98815.19;;;17.52;64.73
9969;BME280;5025;48.890;9.278;2023-07-31T00:48:53;98812.75;;;17.51;64.90
9969;BME280;5025;48.890;9.278;2023-07-31T00:51:19;98807.84;;;17.48;64.84
9969;BME280;5025;48.890;9.278;2023-07-31T00:53:45;98810.56;;;17.48;64.93
9969;BME280;5025;48.890;9.278;2023-07-31T00:56:10;98819.28;;;17.50;64.87
9969;BME280;5025;48.890;9.278;2023-07-31T00:58:36;98812.19;;;17.49;64.89
9969;BME280;5025;48.890;9.278;2023-07-31T01:01:01;98805.09;;;17.48;65.03
9969;BME280;5025;48.890;9.278;2023-07-31T01:03:27;98805.09;;;17.48;64.97
9969;BME280;5025;48.890;9.278;2023-07-31T01:08:56;98811.38;;;17.48;64.97
9969;BME280;5025;48.890;9.278;2023-07-31T01:11:33;98806.19;;;17.47;64.84
9969;BME280;5025;48.890;9.278;2023-07-31T01:13:59;98808.09;;;17.46;64.79
9969;BME280;5025;48.890;9.278;2023-07-31T01:16:27;98805.09;;;17.43;64.74
9969;BME280;5025;48.890;9.278;2023-07-31T01:18:53;98798.81;;;17.42;64.53
9969;BME280;5025;48.890;9.278;2023-07-31T01:21:27;98807.00;;;17.42;64.61
9969;BME280;5025;48.890;9.278;2023-07-31T01:26:52;98793.09;;;17.38;64.22
9969;BME280;5025;48.890;9.278;2023-07-31T01:29:28;98790.34;;;17.38;64.16
9969;BME280;5025;48.890;9.278;2023-07-31T01:32:01;98782.44;;;17.37;64.14
9969;BME280;5025;48.890;9.278;2023-07-31T01:34:28;98772.34;;;17.37;63.96
9969;BME280;5025;48.890;9.278;2023-07-31T01:36:55;98772.88;;;17.39;63.95
9969;BME280;5025;48.890;9.278;2023-07-31T01:39:21;98773.97;;;17.38;63.77
9969;BME280;5025;48.890;9.278;2023-07-31T01:41:46;98766.34;;;17.35;63.70
9969;BME280;5025;48.890;9.278;2023-07-31T01:44:12;98760.31;;;17.33;63.75
9969;BME280;5025;48.890;9.278;2023-07-31T01:46:37;98759.53;;;17.28;64.02
9969;BME280;5025;48.890;9.278;2023-07-31T01:49:02;98764.41;;;17.26;64.00
9969;BME280;5025;48.890;9.278;2023-07-31T01:51:28;98770.72;;;17.26;63.69
9969;BME280;5025;48.890;9.278;2023-07-31T01:53:53;98763.06;;;17.28;63.66
9969;BME280;5025;48.890;9.278;2023-07-31T01:56:18;98775.31;;;17.26;63.73
9969;BME280;5025;48.890;9.278;2023-07-31T01:58:43;98769.59;;;17.22;63.76
9969;BME280;5025;48.890;9.278;2023-07-31T02:01:09;98757.31;;;17.19;63.99
9969;BME280;5025;48.890;9.278;2023-07-31T02:03:34;98762.25;;;17.17;64.16
9969;BME280;5025;48.890;9.278;2023-07-31T02:05:59;98763.59;;;17.15;64.17
9969;BME280;5025;48.890;9.278;2023-07-31T02:08:25;98764.69;;;17.14;64.20
9969;BME280;5025;48.890;9.278;2023-07-31T02:10:50;98756.25;;;17.10;64.37
9969;BME280;5025;48.890;9.278;2023-07-31T02:13:15;98752.97;;;17.08;64.32
9969;BME280;5025;48.890;9.278;2023-07-31T02:15:40;98745.88;;;17.07;64.39
9969;BME280;5025;48.890;9.278;2023-07-31T02:18:05;98741.50;;;17.06;64.46
9969;BME280;5025;48.890;9.278;2023-07-31T02:20:34;98740.44;;;17.07;64.56
9969;BME280;5025;48.890;9.278;2023-07-31T02:23:00;98739.84;;;17.05;64.56
9969;BME280;5025;48.890;9.278;2023-07-31T02:25:25;98739.06;;;16.99;64.71
9969;BME280;5025;48.890;9.278;2023-07-31T02:27:50;98740.94;;;16.99;65.00
9969;BME280;5025;48.890;9.278;2023-07-31T02:30:15;98735.22;;;16.95;65.08
9969;BME280;5025;48.890;9.278;2023-07-31T02:32:41;98730.31;;;16.92;65.34
9969;BME280;5025;48.890;9.278;2023-07-31T02:35:06;98730.59;;;16.91;65.62
9969;BME280;5025;48.890;9.278;2023-07-31T02:37:33;98731.66;;;16.90;65.58
9969;BME280;5025;48.890;9.278;2023-07-31T02:39:59;98727.84;;;16.91;65.56
9969;BME280;5025;48.890;9.278;2023-07-31T02:42:24;98723.78;;;16.93;65.73
9969;BME280;5025;48.890;9.278;2023-07-31T02:44:49;98712.88;;;16.93;65.69
9969;BME280;5025;48.890;9.278;2023-07-31T02:47:17;98715.84;;;16.97;65.68
9969;BME280;5025;48.890;9.278;2023-07-31T02:49:42;98711.78;;;16.99;65.98
9969;BME280;5025;48.890;9.278;2023-07-31T02:52:07;98708.75;;;16.96;65.88
9969;BME280;5025;48.890;9.278;2023-07-31T02:54:32;98709.59;;;16.96;65.94
9969;BME280;5025;48.890;9.278;2023-07-31T02:56:58;98707.41;;;16.98;65.85
9969;BME280;5025;48.890;9.278;2023-07-31T02:59:23;98709.59;;;16.96;65.71
9969;BME280;5025;48.890;9.278;2023-07-31T03:01:48;98709.59;;;16.96;65.64
9969;BME280;5025;48.890;9.278;2023-07-31T03:04:13;98709.59;;;16.96;65.53
9969;BME280;5025;48.890;9.278;2023-07-31T03:06:39;98708.47;;;16.97;65.56
9969;BME280;5025;48.890;9.278;2023-07-31T03:09:04;98708.22;;;16.99;65.51
9969;BME280;5025;48.890;9.278;2023-07-31T03:11:29;98698.13;;;16.99;65.38
9969;BME280;5025;48.890;9.278;2023-07-31T03:13:54;98710.66;;;17.00;65.25
9969;BME280;5025;48.890;9.278;2023-07-31T03:16:20;98712.31;;;16.96;65.50
9969;BME280;5025;48.890;9.278;2023-07-31T03:18:45;98718.84;;;16.95;65.41
9969;BME280;5025;48.890;9.278;2023-07-31T03:21:10;98722.66;;;16.94;65.49
9969;BME280;5025;48.890;9.278;2023-07-31T03:23:35;98717.22;;;16.89;65.82
9969;BME280;5025;48.890;9.278;2023-07-31T03:26:02;98712.84;;;16.88;65.83
9969;BME280;5025;48.890;9.278;2023-07-31T03:28:29;98710.13;;;16.88;65.88
9969;BME280;5025;48.890;9.278;2023-07-31T03:30:54;98702.78;;;16.89;66.06
9969;BME280;5025;48.890;9.278;2023-07-31T03:33:19;98710.13;;;16.88;66.06
9969;BME280;5025;48.890;9.278;2023-07-31T03:35:45;98715.56;;;16.88;66.07
9969;BME280;5025;48.890;9.278;2023-07-31T03:38:10;98715.03;;;16.86;65.91
9969;BME280;5025;48.890;9.278;2023-07-31T03:40:36;98712.53;;;16.84;66.07
9969;BME280;5025;48.890;9.278;2023-07-31T03:43:01;98719.91;;;16.84;66.10
9969;BME280;5025;48.890;9.278;2023-07-31T03:45:26;98716.09;;;16.85;66.07
9969;BME280;5025;48.890;9.278;2023-07-31T03:47:51;98714.19;;;16.85;65.92
9969;BME280;5025;48.890;9.278;2023-07-31T03:50:17;98715.81;;;16.81;65.95
9969;BME280;5025;48.890;9.278;2023-07-31T03:52:42;98718.81;;;16.80;66.07
9969;BME280;5025;48.890;9.278;2023-07-31T03:55:07;98723.19;;;16.81;65.85
9969;BME280;5025;48.890;9.278;2023-07-31T03:57:33;98722.09;;;16.77;66.00
9969;BME280;5025;48.890;9.278;2023-07-31T03:59:58;98717.97;;;16.74;65.99
9969;BME280;5025;48.890;9.278;2023-07-31T04:02:23;98709.53;;;16.71;65.98
9969;BME280;5025;48.890;9.278;2023-07-31T04:04:49;98712.53;;;16.69;65.99
9969;BME280;5025;48.890;9.278;2023-07-31T04:07:14;98714.72;;;16.67;66.12
9969;BME280;5025;48.890;9.278;2023-07-31T04:09:39;98708.44;;;16.66;66.12
9969;BME280;5025;48.890;9.278;2023-07-31T04:12:05;98704.09;;;16.65;66.14
9969;BME280;5025;48.890;9.278;2023-07-31T04:14:30;98701.63;;;16.64;66.34
9969;BME280;5025;48.890;9.278;2023-07-31T04:16:55;98709.81;;;16.64;66.36
9969;BME280;5025;48.890;9.278;2023-07-31T04:19:20;98702.16;;;16.66;66.37
9969;BME280;5025;48.890;9.278;2023-07-31T04:21:46;98699.72;;;16.64;66.24
9969;BME280;5025;48.890;9.278;2023-07-31T04:24:11;98703.53;;;16.58;66.47
9969;BME280;5025;48.890;9.278;2023-07-31T04:26:36;98698.34;;;16.52;66.88
9969;BME280;5025;48.890;9.278;2023-07-31T04:29:01;98708.41;;;16.51;66.93
9969;BME280;5025;48.890;9.278;2023-07-31T04:31:27;98698.31;;;16.46;67.13
9969;BME280;5025;48.890;9.278;2023-07-31T04:33:52;98702.13;;;16.45;67.23
9969;BME280;5025;48.890;9.278;2023-07-31T04:36:17;98696.16;;;16.48;67.12
9969;BME280;5025;48.890;9.278;2023-07-31T04:38:42;98690.97;;;16.52;67.23
9969;BME280;5025;48.890;9.278;2023-07-31T04:41:08;98690.97;;;16.52;67.13
9969;BME280;5025;48.890;9.278;2023-07-31T04:43:33;98699.69;;;16.54;67.31
9969;BME280;5025;48.890;9.278;2023-07-31T04:45:58;98707.84;;;16.54;67.28
9969;BME280;5025;48.890;9.278;2023-07-31T04:48:24;98698.06;;;16.53;67.33
9969;BME280;5025;48.890;9.278;2023-07-31T04:50:49;98698.06;;;16.53;67.45
9969;BME280;5025;48.890;9.278;2023-07-31T04:53:14;98700.22;;;16.51;67.54
9969;BME280;5025;48.890;9.278;2023-07-31T04:55:39;98704.59;;;16.47;67.81
9969;BME280;5025;48.890;9.278;2023-07-31T04:58:05;98698.88;;;16.48;67.58
9969;BME280;5025;48.890;9.278;2023-07-31T05:00:30;98697.50;;;16.51;67.85
9969;BME280;5025;48.890;9.278;2023-07-31T05:02:55;98698.06;;;16.53;67.80
9969;BME280;5025;48.890;9.278;2023-07-31T05:05:20;98698.06;;;16.53;68.09
9969;BME280;5025;48.890;9.278;2023-07-31T05:07:46;98698.88;;;16.54;68.14
9969;BME280;5025;48.890;9.278;2023-07-31T05:10:11;98689.88;;;16.53;68.23
9969;BME280;5025;48.890;9.278;2023-07-31T05:12:36;98688.25;;;16.57;68.21
9969;BME280;5025;48.890;9.278;2023-07-31T05:15:02;98686.09;;;16.59;68.22
9969;BME280;5025;48.890;9.278;2023-07-31T05:17:27;98685.53;;;16.62;68.34
9969;BME280;5025;48.890;9.278;2023-07-31T05:19:52;98685.53;;;16.67;68.15
9969;BME280;5025;48.890;9.278;2023-07-31T05:22:18;98686.06;;;16.70;68.05
9969;BME280;5025;48.890;9.278;2023-07-31T05:24:43;98682.81;;;16.73;68.04
9969;BME280;5025;48.890;9.278;2023-07-31T05:27:08;98673.00;;;16.72;68.03
9969;BME280;5025;48.890;9.278;2023-07-31T05:29:34;98675.72;;;16.77;67.87
9969;BME280;5025;48.890;9.278;2023-07-31T05:32:00;98684.16;;;16.80;67.67
9969;BME280;5025;48.890;9.278;2023-07-31T05:34:25;98686.09;;;16.85;67.51
9969;BME280;5025;48.890;9.278;2023-07-31T05:36:50;98692.13;;;16.87;67.22
9969;BME280;5025;48.890;9.278;2023-07-31T05:39:15;98685.84;;;16.87;67.15
9969;BME280;5025;48.890;9.278;2023-07-31T05:41:41;98689.41;;;16.92;67.21
9969;BME280;5025;48.890;9.278;2023-07-31T05:44:06;98683.13;;;16.97;66.96
9969;BME280;5025;48.890;9.278;2023-07-31T05:46:31;98685.31;;;17.00;67.08
9969;BME280;5025;48.890;9.278;2023-07-31T05:48:57;98679.84;;;17.05;66.70
9969;BME280;5025;48.890;9.278;2023-07-31T05:51:22;98691.56;;;17.11;66.40
9969;BME280;5025;48.890;9.278;2023-07-31T05:53:47;98691.03;;;17.14;66.16
9969;BME280;5025;48.890;9.278;2023-07-31T05:56:13;98685.56;;;17.19;66.10
9969;BME280;5025;48.890;9.278;2023-07-31T05:58:38;98686.09;;;17.21;65.70
9969;BME280;5025;48.890;9.278;2023-07-31T06:01:03;98678.47;;;17.23;65.44
9969;BME280;5025;48.890;9.278;2023-07-31T06:03:28;98686.09;;;17.26;65.37
9969;BME280;5025;48.890;9.278;2023-07-31T06:05:54;98679.53;;;17.27;65.14
9969;BME280;5025;48.890;9.278;2023-07-31T06:08:19;98675.69;;;17.33;64.81
9969;BME280;5025;48.890;9.278;2023-07-31T06:10:44;98677.88;;;17.36;64.79
9969;BME280;5025;48.890;9.278;2023-07-31T06:13:09;98681.69;;;17.41;64.84
9969;BME280;5025;48.890;9.278;2023-07-31T06:15:35;98683.88;;;17.44;64.68
9969;BME280;5025;48.890;9.278;2023-07-31T06:18:00;98680.88;;;17.45;64.49
9969;BME280;5025;48.890;9.278;2023-07-31T06:20:27;98683.84;;;17.49;64.42
9969;BME280;5025;48.890;9.278;2023-07-31T06:22:52;98682.22;;;17.53;64.31
9969;BME280;5025;48.890;9.278;2023-07-31T06:25:18;98678.13;;;17.55;64.20
9969;BME280;5025;48.890;9.278;2023-07-31T06:27:43;98682.75;;;17.60;64.16
9969;BME280;5025;48.890;9.278;2023-07-31T06:30:08;98683.81;;;17.64;64.08
9969;BME280;5025;48.890;9.278;2023-07-31T06:32:34;98677.81;;;17.67;64.05
9969;BME280;5025;48.890;9.278;2023-07-31T06:34:59;98676.13;;;17.77;64.01
9969;BME280;5025;48.890;9.278;2023-07-31T06:37:24;98685.41;;;17.81;63.64
9969;BME280;5025;48.890;9.278;2023-07-31T06:39:49;98678.31;;;17.85;63.42
9969;BME280;5025;48.890;9.278;2023-07-31T06:42:15;98678.84;;;17.87;62.83
9969;BME280;5025;48.890;9.278;2023-07-31T06:44:40;98674.75;;;17.95;62.44
9969;BME280;5025;48.890;9.278;2023-07-31T06:47:05;98677.72;;;18.03;62.65
9969;BME280;5025;48.890;9.278;2023-07-31T06:49:31;98678.22;;;18.10;62.51
9969;BME280;5025;48.890;9.278;2023-07-31T06:51:56;98679.25;;;18.20;62.26
9969;BME280;5025;48.890;9.278;2023-07-31T06:54:21;98690.72;;;18.27;61.99
9969;BME280;5025;48.890;9.278;2023-07-31T06:56:47;98684.09;;;18.33;61.75
9969;BME280;5025;48.890;9.278;2023-07-31T06:59:12;98678.59;;;18.38;61.15
9969;BME280;5025;48.890;9.278;2023-07-31T07:01:37;98672.31;;;18.38;59.85
9969;BME280;5025;48.890;9.278;2023-07-31T07:04:02;98684.59;;;18.45;58.55
9969;BME280;5025;48.890;9.278;2023-07-31T07:06:28;98675.81;;;18.49;56.99
9969;BME280;5025;48.890;9.278;2023-07-31T07:08:53;98687.75;;;18.63;56.76
9969;BME280;5025;48.890;9.278;2023-07-31T07:11:18;98672.94;;;18.69;56.43
9969;BME280;5025;48.890;9.278;2023-07-31T07:13:43;98678.34;;;18.79;56.08
9969;BME280;5025;48.890;9.278;2023-07-31T07:16:09;98670.88;;;18.90;55.71
9969;BME280;5025;48.890;9.278;2023-07-31T07:18:35;98673.00;;;18.98;56.03
9969;BME280;5025;48.890;9.278;2023-07-31T07:21:00;98672.13;;;19.03;55.59
9969;BME280;5025;48.890;9.278;2023-07-31T07:23:27;98690.22;;;19.04;54.72
9969;BME280;5025;48.890;9.278;2023-07-31T07:25:52;98663.84;;;19.13;54.83
9969;BME280;5025;48.890;9.278;2023-07-31T07:28:18;98667.69;;;19.12;54.80
9969;BME280;5025;48.890;9.278;2023-07-31T07:30:43;98651.25;;;19.12;54.55
9969;BME280;5025;48.890;9.278;2023-07-31T07:33:08;98662.16;;;19.17;54.12
9969;BME280;5025;48.890;9.278;2023-07-31T07:35:34;98645.19;;;19.15;53.49
9969;BME280;5025;48.890;9.278;2023-07-31T07:38:00;98670.91;;;19.20;54.29
9969;BME280;5025;48.890;9.278;2023-07-31T07:40:25;98658.25;;;19.24;54.55
9969;BME280;5025;48.890;9.278;2023-07-31T07:42:51;98659.84;;;19.30;54.56
9969;BME280;5025;48.890;9.278;2023-07-31T07:45:16;98660.38;;;19.32;54.47
9969;BME280;5025;48.890;9.278;2023-07-31T07:47:41;98654.06;;;19.31;54.54
9969;BME280;5025;48.890;9.278;2023-07-31T07:50:08;98651.53;;;19.40;54.68
9969;BME280;5025;48.890;9.278;2023-07-31T07:52:33;98653.63;;;19.48;54.75
9969;BME280;5025;48.890;9.278;2023-07-31T07:54:58;98664.19;;;19.60;53.56
9969;BME280;5025;48.890;9.278;2023-07-31T07:57:25;98655.16;;;19.60;53.23
9969;BME280;5025;48.890;9.278;2023-07-31T07:59:50;98648.56;;;19.61;53.72
9969;BME280;5025;48.890;9.278;2023-07-31T08:02:15;98655.16;;;19.60;53.96
9969;BME280;5025;48.890;9.278;2023-07-31T08:04:40;98657.25;;;19.68;53.63
9969;BME280;5025;48.890;9.278;2023-07-31T08:07:06;98673.97;;;19.66;53.10
9969;BME280;5025;48.890;9.278;2023-07-31T08:09:31;98650.19;;;19.62;53.03
9969;BME280;5025;48.890;9.278;2023-07-31T08:11:56;98641.38;;;19.65;52.93
9969;BME280;5025;48.890;9.278;2023-07-31T08:14:26;98649.53;;;19.70;52.86
9969;BME280;5025;48.890;9.278;2023-07-31T08:16:52;98650.59;;;19.74;52.89
9969;BME280;5025;48.890;9.278;2023-07-31T08:19:17;98635.25;;;19.73;52.85
9969;BME280;5025;48.890;9.278;2023-07-31T08:21:42;98639.34;;;19.76;52.59
9969;BME280;5025;48.890;9.278;2023-07-31T08:24:08;98629.72;;;19.78;52.74
9969;BME280;5025;48.890;9.278;2023-07-31T08:26:33;98638.22;;;19.82;52.22
9969;BME280;5025;48.890;9.278;2023-07-31T08:28:58;98661.50;;;19.79;51.99
9969;BME280;5025;48.890;9.278;2023-07-31T08:31:24;98647.00;;;19.79;51.88
9969;BME280;5025;48.890;9.278;2023-07-31T08:33:49;98629.16;;;19.81;51.90
9969;BME280;5025;48.890;9.278;2023-07-31T08:36:14;98632.47;;;19.78;51.98
9969;BME280;5025;48.890;9.278;2023-07-31T08:38:39;98629.16;;;19.81;51.71
9969;BME280;5025;48.890;9.278;2023-07-31T08:41:05;98624.44;;;19.87;51.95
9969;BME280;5025;48.890;9.278;2023-07-31T08:43:31;98618.06;;;19.92;52.60
9969;BME280;5025;48.890;9.278;2023-07-31T08:45:57;98605.25;;;20.06;51.92
9969;BME280;5025;48.890;9.278;2023-07-31T08:48:23;98612.53;;;20.16;51.91
9969;BME280;5025;48.890;9.278;2023-07-31T08:50:49;98618.75;;;20.21;51.94
9969;BME280;5025;48.890;9.278;2023-07-31T08:53:14;98612.97;;;20.23;51.24
9969;BME280;5025;48.890;9.278;2023-07-31T08:55:41;98610.97;;;20.29;51.33
9969;BME280;5025;48.890;9.278;2023-07-31T08:58:08;98609.56;;;20.31;51.41
9969;BME280;5025;48.890;9.278;2023-07-31T09:00:33;98626.09;;;20.45;51.46
9969;BME280;5025;48.890;9.278;2023-07-31T09:03:03;98615.47;;;20.57;50.64
9969;BME280;5025;48.890;9.278;2023-07-31T09:05:30;98603.31;;;20.64;51.11
9969;BME280;5025;48.890;9.278;2023-07-31T09:07:56;98625.25;;;20.64;50.46
9969;BME280;5025;48.890;9.278;2023-07-31T09:10:22;98601.25;;;20.74;50.32
9969;BME280;5025;48.890;9.278;2023-07-31T09:12:49;98589.66;;;20.77;50.06
9969;BME280;5025;48.890;9.278;2023-07-31T09:15:14;98591.19;;;20.84;49.43
9969;BME280;5025;48.890;9.278;2023-07-31T09:17:39;98600.44;;;20.88;50.00
9969;BME280;5025;48.890;9.278;2023-07-31T09:20:15;98595.47;;;20.90;49.71
9969;BME280;5025;48.890;9.278;2023-07-31T09:22:41;98587.63;;;20.83;49.57
9969;BME280;5025;48.890;9.278;2023-07-31T09:25:18;98608.78;;;20.83;49.92
9969;BME280;5025;48.890;9.278;2023-07-31T09:27:53;98597.59;;;20.79;49.38
9969;BME280;5025;48.890;9.278;2023-07-31T09:30:20;98617.31;;;20.81;49.68
9969;BME280;5025;48.890;9.278;2023-07-31T09:32:47;98605.22;;;20.82;49.74
9969;BME280;5025;48.890;9.278;2023-07-31T09:35:22;98588.06;;;20.90;49.66
9969;BME280;5025;48.890;9.278;2023-07-31T09:37:58;98589.88;;;20.95;49.25
9969;BME280;5025;48.890;9.278;2023-07-31T09:40:31;98597.03;;;20.96;49.28
9969;BME280;5025;48.890;9.278;2023-07-31T09:43:01;98608.59;;;20.93;49.12
9969;BME280;5025;48.890;9.278;2023-07-31T09:45:27;98574.44;;;20.85;49.31
9969;BME280;5025;48.890;9.278;2023-07-31T09:47:53;98567.31;;;20.84;49.68
9969;BME280;5025;48.890;9.278;2023-07-31T09:50:24;98556.13;;;20.81;49.94
9969;BME280;5025;48.890;9.278;2023-07-31T09:52:50;98551.84;;;20.74;49.84
9969;BME280;5025;48.890;9.278;2023-07-31T09:55:17;98557.53;;;20.78;50.52
9969;BME280;5025;48.890;9.278;2023-07-31T09:57:45;98553.06;;;20.82;49.84
9969;BME280;5025;48.890;9.278;2023-07-31T10:00:12;98547.88;;;20.81;50.50
9969;BME280;5025;48.890;9.278;2023-07-31T10:02:38;98553.47;;;20.89;49.49
9969;BME280;5025;48.890;9.278;2023-07-31T10:05:05;98550.22;;;20.87;49.95
9969;BME280;5025;48.890;9.278;2023-07-31T10:07:36;98554.00;;;20.91;49.54
9969;BME280;5025;48.890;9.278;2023-07-31T10:10:03;98546.56;;;20.92;50.01
9969;BME280;5025;48.890;9.278;2023-07-31T10:12:29;98537.72;;;20.95;50.08
9969;BME280;5025;48.890;9.278;2023-07-31T10:14:56;98539.06;;;20.98;49.90
9969;BME280;5025;48.890;9.278;2023-07-31T10:17:22;98543.97;;;21.01;49.95
9969;BME280;5025;48.890;9.278;2023-07-31T10:19:49;98541.50;;;20.99;49.97
9969;BME280;5025;48.890;9.278;2023-07-31T10:22:15;98536.72;;;21.05;49.80
9969;BME280;5025;48.890;9.278;2023-07-31T10:24:42;98539.06;;;21.11;49.47
9969;BME280;5025;48.890;9.278;2023-07-31T10:27:08;98531.53;;;21.17;49.55
9969;BME280;5025;48.890;9.278;2023-07-31T10:29:35;98532.16;;;21.28;48.72
9969;BME280;5025;48.890;9.278;2023-07-31T10:32:01;98519.13;;;21.34;48.05
9969;BME280;5025;48.890;9.278;2023-07-31T10:34:27;98514.75;;;21.33;47.98
9969;BME280;5025;48.890;9.278;2023-07-31T10:42:27;98520.66;;;21.40;48.47
9969;BME280;5025;48.890;9.278;2023-07-31T10:44:56;98509.88;;;21.29;47.93
9969;BME280;5025;48.890;9.278;2023-07-31T10:47:21;98513.03;;;21.37;48.28
9969;BME280;5025;48.890;9.278;2023-07-31T10:49:46;98521.34;;;21.45;48.26
9969;BME280;5025;48.890;9.278;2023-07-31T10:52:13;98518.53;;;21.51;48.42
9969;BME280;5025;48.890;9.278;2023-07-31T10:54:38;98517.41;;;21.52;48.29
9969;BME280;5025;48.890;9.278;2023-07-31T10:57:19;98511.19;;;21.60;47.88
9969;BME280;5025;48.890;9.278;2023-07-31T10:59:44;98514.03;;;21.55;48.29
9969;BME280;5025;48.890;9.278;2023-07-31T11:02:24;98522.88;;;21.52;48.62
9969;BME280;5025;48.890;9.278;2023-07-31T11:05:09;98517.63;;;21.55;48.32
9969;BME280;5025;48.890;9.278;2023-07-31T11:07:50;98497.75;;;21.58;48.11
9969;BME280;5025;48.890;9.278;2023-07-31T11:10:18;98497.25;;;21.56;48.23
9969;BME280;5025;48.890;9.278;2023-07-31T11:12:45;98490.75;;;21.52;47.58
9969;BME280;5025;48.890;9.278;2023-07-31T11:15:11;98496.00;;;21.62;47.36
9969;BME280;5025;48.890;9.278;2023-07-31T11:17:40;98495.38;;;21.65;47.58
9969;BME280;5025;48.890;9.278;2023-07-31T11:20:06;98492.41;;;21.76;48.00
9969;BME280;5025;48.890;9.278;2023-07-31T11:22:35;98482.63;;;21.83;47.39
9969;BME280;5025;48.890;9.278;2023-07-31T11:25:03;98494.63;;;21.88;47.13
9969;BME280;5025;48.890;9.278;2023-07-31T11:27:29;98484.63;;;21.92;46.44
9969;BME280;5025;48.890;9.278;2023-07-31T11:30:00;98495.69;;;22.00;47.03
9969;BME280;5025;48.890;9.278;2023-07-31T11:32:26;98503.16;;;22.00;46.29
9969;BME280;5025;48.890;9.278;2023-07-31T11:34:55;98491.13;;;21.96;46.49
9969;BME280;5025;48.890;9.278;2023-07-31T11:37:20;98473.69;;;22.00;46.39
9969;BME280;5025;48.890;9.278;2023-07-31T11:40:01;98478.19;;;21.96;46.61
9969;BME280;5025;48.890;9.278;2023-07-31T11:42:27;98478.00;;;21.93;46.94
9969;BME280;5025;48.890;9.278;2023-07-31T11:44:52;98466.78;;;22.03;46.61
9969;BME280;5025;48.890;9.278;2023-07-31T11:47:18;98458.53;;;22.03;47.21
9969;BME280;5025;48.890;9.278;2023-07-31T11:49:43;98455.63;;;22.08;47.00
9969;BME280;5025;48.890;9.278;2023-07-31T11:52:09;98466.00;;;22.11;47.32
9969;BME280;5025;48.890;9.278;2023-07-31T11:54:36;98456.81;;;22.16;46.81
9969;BME280;5025;48.890;9.278;2023-07-31T11:57:02;98454.88;;;22.16;46.95
9969;BME280;5025;48.890;9.278;2023-07-31T11:59:28;98451.31;;;22.16;47.28
9969;BME280;5025;48.890;9.278;2023-07-31T12:01:53;98446.84;;;22.20;47.01
9969;BME280;5025;48.890;9.278;2023-07-31T12:04:20;98446.50;;;22.22;46.72
9969;BME280;5025;48.890;9.278;2023-07-31T12:06:47;98440.38;;;22.25;46.81
9969;BME280;5025;48.890;9.278;2023-07-31T12:09:14;98435.69;;;22.25;46.64
9969;BME280;5025;48.890;9.278;2023-07-31T12:11:46;98431.41;;;22.33;46.31
9969;BME280;5025;48.890;9.278;2023-07-31T12:14:23;98432.31;;;22.28;46.33
9969;BME280;5025;48.890;9.278;2023-07-31T12:16:54;98438.31;;;22.30;46.40
9969;BME280;5025;48.890;9.278;2023-07-31T12:19:19;98426.50;;;22.30;46.10
9969;BME280;5025;48.890;9.278;2023-07-31T12:21:44;98426.00;;;22.28;46.38
9969;BME280;5025;48.890;9.278;2023-07-31T12:24:09;98412.72;;;22.30;46.02
9969;BME280;5025;48.890;9.278;2023-07-31T12:26:35;98427.00;;;22.32;46.54
9969;BME280;5025;48.890;9.278;2023-07-31T12:29:00;98426.63;;;22.25;46.72
9969;BME280;5025;48.890;9.278;2023-07-31T12:31:27;98423.25;;;22.28;47.28
9969;BME280;5025;48.890;9.278;2023-07-31T12:33:53;98417.44;;;22.29;46.58
9969;BME280;5025;48.890;9.278;2023-07-31T12:36:22;98419.66;;;22.27;46.44
9969;BME280;5025;48.890;9.278;2023-07-31T12:38:48;98419.13;;;22.39;46.46
9969;BME280;5025;48.890;9.278;2023-07-31T12:41:14;98400.84;;;22.43;46.07
9969;BME280;5025;48.890;9.278;2023-07-31T12:43:41;98404.09;;;22.45;46.77
9969;BME280;5025;48.890;9.278;2023-07-31T12:46:07;98395.53;;;22.47;46.50
9969;BME280;5025;48.890;9.278;2023-07-31T12:48:33;98397.34;;;22.51;46.98
9969;BME280;5025;48.890;9.278;2023-07-31T12:50:58;98380.63;;;22.48;46.47
9969;BME280;5025;48.890;9.278;2023-07-31T12:53:24;98389.41;;;22.50;46.44
9969;BME280;5025;48.890;9.278;2023-07-31T12:55:49;98382.44;;;22.52;46.67
9969;BME280;5025;48.890;9.278;2023-07-31T12:58:15;98386.50;;;22.55;46.30
9969;BME280;5025;48.890;9.278;2023-07-31T13:00:40;98384.53;;;22.47;46.28
9969;BME280;5025;48.890;9.278;2023-07-31T13:03:05;98374.16;;;22.44;46.53
9969;BME280;5025;48.890;9.278;2023-07-31T13:05:30;98368.03;;;22.47;46.84
9969;BME280;5025;48.890;9.278;2023-07-31T13:07:56;98369.63;;;22.48;46.77
9969;BME280;5025;48.890;9.278;2023-07-31T13:10:23;98368.34;;;22.45;46.98
9969;BME280;5025;48.890;9.278;2023-07-31T13:12:48;98365.25;;;22.47;47.12
9969;BME280;5025;48.890;9.278;2023-07-31T13:15:13;98366.38;;;22.46;46.84
9969;BME280;5025;48.890;9.278;2023-07-31T13:17:39;98369.63;;;22.48;46.53
9969;BME280;5025;48.890;9.278;2023-07-31T13:20:04;98353.25;;;22.43;46.30
9969;BME280;5025;48.890;9.278;2023-07-31T13:22:30;98361.19;;;22.35;45.46
9969;BME280;5025;48.890;9.278;2023-07-31T13:24:55;98360.78;;;22.28;45.55
9969;BME280;5025;48.890;9.278;2023-07-31T13:27:21;98353.16;;;22.25;45.35